Time;durP1;ratioP1;P1;durP2;ratioP2;P2;SDS_P1;SDS_P2;PMS_P1;PMS_P2;Temp;Humidity;BMP_temperature;BMP_pressure;BME280_temperature;BME280_humidity;BME280_pressure;Samples;Min_cycle;Max_cycle;Signal;HPM_P1;HPM_P2
2023/02/15 11:56:21;;;;;;;55.50;28.50;;;;;;;2.13;91.51;101578.77;100072;1291;635881;-67
2023/02/15 11:59:05;;;;;;;47.30;26.20;;;;;;;2.19;90.88;101578.05;101928;1264;1002981;-68
2023/02/15 12:01:36;;;;;;;46.00;25.40;;;;;;;2.19;90.81;101571.39;102675;1265;108509;-68
2023/02/15 12:04:16;;;;;;;50.70;26.10;;;;;;;2.22;90.64;101567.15;102415;1266;137620;-68
2023/02/15 12:06:49;;;;;;;54.80;26.50;;;;;;;2.21;90.45;101562.16;101864;1267;1003186;-67
2023/02/15 12:09:25;;;;;;;48.70;26.20;;;;;;;2.20;90.25;101564.52;99511;1266;3159336;-69
2023/02/15 12:11:53;;;;;;;54.10;27.90;;;;;;;2.17;90.48;101554.85;102719;1264;94386;-67
2023/02/15 12:14:49;;;;;;;51.60;28.90;;;;;;;2.17;90.54;101557.09;101905;1260;1002826;-68
2023/02/15 12:17:27;;;;;;;54.50;27.10;;;;;;;2.17;91.05;101553.48;102672;1264;138313;-67
2023/02/15 12:20:30;;;;;;;53.20;28.00;;;;;;;2.16;90.88;101548.65;101285;1264;1002850;-67
2023/02/15 12:23:13;;;;;;;57.50;29.20;;;;;;;2.17;90.87;101544.05;102556;1264;138115;-68
2023/02/15 12:25:50;;;;;;;55.70;29.00;;;;;;;2.19;91.02;101541.00;102727;1260;95146;-68
2023/02/15 12:28:32;;;;;;;59.70;30.90;;;;;;;2.20;91.06;101534.50;102729;1264;138229;-68
2023/02/15 12:31:08;;;;;;;63.10;31.70;;;;;;;2.23;91.18;101538.35;102589;1260;95151;-67
2023/02/15 12:33:41;;;;;;;62.50;33.70;;;;;;;2.25;91.27;101538.89;102306;1262;137724;-68
2023/02/15 12:36:22;;;;;;;60.80;31.40;;;;;;;2.24;91.39;101539.05;102746;1263;108519;-68
2023/02/15 12:41:47;;;;;;;64.60;32.90;;;;;;;2.26;91.09;101529.14;99902;1298;636458;-69
2023/02/15 12:44:23;;;;;;;59.20;30.80;;;;;;;2.25;91.18;101526.38;101018;1264;1002734;-69
2023/02/15 12:47:01;;;;;;;61.40;30.30;;;;;;;2.26;91.39;101523.80;102911;1260;137660;-69
2023/02/15 12:49:39;;;;;;;59.90;30.00;;;;;;;2.25;91.37;101513.50;102881;1261;94462;-69
2023/02/15 12:52:27;;;;;;;60.00;29.40;;;;;;;2.24;91.40;101509.71;102960;1260;137230;-69
2023/02/15 12:54:55;;;;;;;64.40;32.60;;;;;;;2.28;91.33;101507.90;99069;1256;5360991;-70
2023/02/15 12:57:33;;;;;;;62.00;30.30;;;;;;;2.29;91.59;101510.16;103246;1254;107347;-69
2023/02/15 13:00:31;;;;;;;70.20;33.50;;;;;;;2.30;91.58;101499.70;102567;1254;1002730;-68
2023/02/15 13:03:03;;;;;;;70.10;33.90;;;;;;;2.31;91.67;101499.38;103124;1256;94830;-67
2023/02/15 13:05:56;;;;;;;68.20;33.40;;;;;;;2.30;91.48;101494.55;102914;1257;137309;-68
2023/02/15 13:08:29;;;;;;;65.00;32.90;;;;;;;2.31;91.64;101497.14;102870;1258;95182;-67
2023/02/15 13:11:23;;;;;;;67.80;35.30;;;;;;;2.33;91.71;101496.51;102017;1257;1002877;-68
2023/02/15 13:13:54;;;;;;;61.80;33.50;;;;;;;2.34;91.68;101494.14;102770;1254;108253;-68
2023/02/15 13:16:40;;;;;;;64.00;32.30;;;;;;;2.33;91.83;101491.88;102786;1259;138134;-68
2023/02/15 13:19:16;;;;;;;65.00;31.60;;;;;;;2.30;91.78;101491.29;102972;1257;108033;-69
2023/02/15 13:21:56;;;;;;;64.00;31.00;;;;;;;2.28;91.46;101486.27;103854;1253;138361;-67
2023/02/15 13:24:38;;;;;;;58.70;30.20;;;;;;;2.26;91.67;101477.31;103307;1257;108645;-67
2023/02/15 13:27:18;;;;;;;54.90;28.70;;;;;;;2.26;91.60;101477.14;103141;1256;108799;-68
2023/02/15 13:30:19;;;;;;;66.10;31.20;;;;;;;2.25;91.47;101469.23;103198;1253;95473;-68
2023/02/15 13:32:53;;;;;;;64.10;31.70;;;;;;;2.26;91.34;101470.79;103233;1253;107178;-68
2023/02/15 13:35:48;;;;;;;65.60;33.20;;;;;;;2.27;91.57;101468.06;103102;1253;137960;-68
2023/02/15 13:38:53;;;;;;;65.80;31.90;;;;;;;2.27;91.76;101467.39;101802;1254;1003093;-68
2023/02/15 13:41:52;;;;;;;57.10;29.30;;;;;;;2.24;91.53;101463.55;103115;1257;138050;-68
2023/02/15 13:44:56;;;;;;;58.10;29.90;;;;;;;2.22;91.41;101459.38;103236;1257;95083;-68
2023/02/15 13:47:33;;;;;;;58.20;29.60;;;;;;;2.22;91.43;101461.63;103178;1258;138001;-68
2023/02/15 13:50:45;;;;;;;54.70;29.60;;;;;;;2.24;91.56;101460.96;103333;1257;95180;-67
2023/02/15 13:53:29;;;;;;;62.20;31.80;;;;;;;2.26;91.50;101462.38;103228;1257;137717;-69
2023/02/15 13:56:21;;;;;;;66.00;34.00;;;;;;;2.30;91.69;101463.66;103187;1259;107848;-68
2023/02/15 13:59:14;;;;;;;65.00;33.00;;;;;;;2.33;91.69;101461.66;102395;1257;1002553;-68
2023/02/15 14:01:53;;;;;;;69.20;34.50;;;;;;;2.34;91.61;101466.52;103252;1254;107480;-68
2023/02/15 14:04:54;;;;;;;68.50;34.20;;;;;;;2.33;91.88;101468.70;103142;1258;137710;-68
2023/02/15 14:07:41;;;;;;;74.60;35.70;;;;;;;2.29;91.83;101463.29;102859;1259;108581;-68
2023/02/15 14:10:28;;;;;;;72.30;34.60;;;;;;;2.26;91.65;101458.59;102658;1263;138059;-68
2023/02/15 14:13:14;;;;;;;73.00;35.00;;;;;;;2.22;91.91;101454.41;102797;1263;95628;-68
2023/02/15 14:16:09;;;;;;;69.70;35.20;;;;;;;2.18;92.24;101453.64;102665;1260;137898;-68
2023/02/15 14:18:56;;;;;;;69.60;34.70;;;;;;;2.13;92.29;101452.99;102623;1259;95381;-68
2023/02/15 14:21:37;;;;;;;69.70;32.30;;;;;;;2.10;92.26;101450.20;103391;1261;108292;-68
2023/02/15 14:24:25;;;;;;;70.00;33.60;;;;;;;2.10;92.26;101445.23;103144;1260;106957;-68
2023/02/15 14:27:15;;;;;;;66.60;32.10;;;;;;;2.11;92.02;101446.96;102667;1260;95565;-68
2023/02/15 14:29:52;;;;;;;66.90;32.80;;;;;;;2.14;92.03;101449.08;102558;1262;137778;-69
2023/02/15 14:32:43;;;;;;;78.80;37.00;;;;;;;2.14;91.87;101439.64;102626;1261;95573;-70
2023/02/15 14:35:16;;;;;;;74.80;37.70;;;;;;;2.19;92.43;101441.83;102572;1259;137854;-68
2023/02/15 14:38:13;;;;;;;82.50;39.80;;;;;;;2.20;92.47;101438.92;102788;1263;108984;-68
2023/02/15 14:41:07;;;;;;;81.60;40.70;;;;;;;2.21;92.38;101440.33;102150;1263;1003480;-69
2023/02/15 14:43:45;;;;;;;69.60;34.80;;;;;;;2.21;92.23;101438.95;102780;1259;106939;-69
2023/02/15 14:46:23;;;;;;;70.90;35.30;;;;;;;2.22;91.87;101436.90;102344;1254;1003431;-68
2023/02/15 14:49:11;;;;;;;64.40;33.90;;;;;;;2.24;91.73;101438.33;103118;1254;108944;-69
2023/02/15 14:52:05;;;;;;;73.70;38.10;;;;;;;2.23;91.59;101438.99;103053;1254;138077;-69
2023/02/15 14:54:57;;;;;;;85.90;40.50;;;;;;;2.24;91.79;101436.95;103194;1254;94971;-69
2023/02/15 14:57:27;;;;;;;74.00;38.00;;;;;;;2.22;91.82;101434.50;103130;1256;106686;-68
2023/02/15 14:59:58;;;;;;;75.90;37.50;;;;;;;2.19;91.87;101432.55;103069;1256;137720;-69
2023/02/15 15:02:48;;;;;;;82.10;38.60;;;;;;;2.13;91.89;101430.19;103389;1253;109741;-70
2023/02/15 15:05:21;;;;;;;76.70;37.50;;;;;;;2.10;92.05;101425.84;103666;1253;138468;-70
2023/02/15 15:07:54;;;;;;;77.30;36.80;;;;;;;2.07;91.94;101423.73;103372;1252;95178;-68
2023/02/15 15:10:42;;;;;;;78.60;37.80;;;;;;;2.05;92.05;101419.73;103774;1255;137703;-68
2023/02/15 15:13:52;;;;;;;76.50;37.70;;;;;;;2.03;92.15;101421.05;103370;1253;95080;-68
2023/02/15 15:16:48;;;;;;;76.00;36.10;;;;;;;2.01;92.19;101419.14;103304;1253;137961;-68
2023/02/15 15:20:13;;;;;;;73.10;34.60;;;;;;;1.97;92.32;101417.16;103755;1253;108173;-68
2023/02/15 15:22:50;;;;;;;73.40;36.20;;;;;;;1.93;92.38;101408.83;103293;1253;137773;-68
2023/02/15 15:25:45;;;;;;;81.50;38.90;;;;;;;1.92;92.51;101403.14;103529;1253;108487;-68
2023/02/15 15:29:01;;;;;;;81.40;37.30;;;;;;;1.91;92.72;101404.50;103276;1253;138341;-69
2023/02/15 15:31:36;;;;;;;79.60;37.10;;;;;;;1.89;92.60;101403.94;103181;1259;109178;-69
2023/02/15 15:34:28;;;;;;;71.70;35.70;;;;;;;1.89;92.51;101399.83;102855;1256;138220;-68
2023/02/15 15:37:45;;;;;;;79.10;35.80;;;;;;;1.89;92.55;101396.56;101544;1257;1003058;-69
2023/02/15 15:40:31;;;;;;;;;;;;;;;1.88;92.37;101392.08;103469;1258;138455;-70
2023/02/15 15:43:33;;;;;;;60.50;29.80;;;;;;;1.86;92.36;101393.59;103058;1257;95092;-69
2023/02/15 15:46:21;;;;;;;62.90;30.90;;;;;;;1.84;92.23;101395.26;102866;1260;140042;-69
2023/02/15 15:48:49;;;;;;;59.60;30.60;;;;;;;1.79;92.10;101394.46;102872;1257;107304;-70
2023/02/15 15:51:21;;;;;;;64.40;31.80;;;;;;;1.76;92.24;101393.73;102955;1259;94981;-70
2023/02/15 15:54:01;;;;;;;65.20;31.30;;;;;;;1.72;92.28;101393.13;102261;1261;1002881;-69
2023/02/15 15:56:35;;;;;;;65.30;31.10;;;;;;;1.69;92.26;101395.13;102900;1262;95165;-71
2023/02/15 15:59:06;;;;;;;63.80;29.90;;;;;;;1.65;92.14;101388.34;102833;1259;137954;-70
2023/02/15 16:01:40;;;;;;;62.90;30.60;;;;;;;1.63;92.41;101394.65;102953;1259;108268;-68
2023/02/15 16:04:12;;;;;;;67.00;32.50;;;;;;;1.61;92.67;101390.98;103501;1258;138311;-68
2023/02/15 16:06:44;;;;;;;63.20;31.00;;;;;;;1.59;92.81;101390.41;103278;1253;108786;-68
2023/02/15 16:09:21;;;;;;;64.40;30.70;;;;;;;1.58;92.95;101393.63;103392;1253;95865;-69
2023/02/15 16:11:51;;;;;;;66.90;32.00;;;;;;;1.55;92.95;101394.44;103321;1256;138049;-69
2023/02/15 16:14:26;;;;;;;75.60;33.80;;;;;;;1.54;93.21;101389.80;103423;1256;107427;-69
2023/02/15 16:16:57;;;;;;;71.60;33.70;;;;;;;1.56;93.19;101388.62;103305;1256;137902;-69
2023/02/15 16:19:33;;;;;;;72.70;33.30;;;;;;;1.58;93.31;101386.80;103416;1256;107984;-69
2023/02/15 16:22:16;;;;;;;65.60;30.90;;;;;;;1.61;93.26;101383.59;102529;1253;1003653;-69
2023/02/15 16:25:17;;;;;;;65.60;31.50;;;;;;;1.61;93.28;101381.73;103253;1251;107981;-69
2023/02/15 16:27:45;;;;;;;61.00;30.40;;;;;;;1.63;92.98;101378.35;103183;1256;138263;-69
2023/02/15 16:30:27;;;;;;;59.30;29.40;;;;;;;1.63;92.88;101378.36;102719;1256;1002937;-69
2023/02/15 16:33:16;;;;;;;55.40;28.10;;;;;;;1.64;92.73;101372.72;104509;1256;108017;-67
2023/02/15 16:36:07;;;;;;;55.40;28.10;;;;;;;1.64;92.63;101365.34;103488;1256;95100;-69
2023/02/15 16:39:09;;;;;;;56.50;29.50;;;;;;;1.67;92.56;101364.03;103496;1250;108756;-69
2023/02/15 16:42:01;;;;;;;63.40;31.70;;;;;;;1.69;92.47;101363.39;103301;1256;138081;-68
2023/02/15 16:44:43;;;;;;;60.70;30.70;;;;;;;1.70;92.42;101366.67;103316;1256;94985;-68
2023/02/15 16:47:19;;;;;;;63.90;33.10;;;;;;;1.71;92.38;101363.77;101975;1253;1015827;-69
2023/02/15 16:49:53;;;;;;;68.70;33.40;;;;;;;1.71;92.51;101364.30;103385;1256;95164;-69
2023/02/15 16:52:24;;;;;;;70.10;34.90;;;;;;;1.71;92.47;101355.72;103221;1253;138045;-68
2023/02/15 16:54:56;;;;;;;75.60;34.80;;;;;;;1.69;92.70;101358.09;103652;1256;107077;-71
2023/02/15 16:57:30;;;;;;;69.80;33.90;;;;;;;1.66;92.75;101353.39;103500;1251;95103;-68
2023/02/15 17:00:07;;;;;;;63.00;32.40;;;;;;;1.62;92.72;101351.91;103422;1251;137604;-69
2023/02/15 17:02:36;;;;;;;69.80;34.00;;;;;;;1.55;92.61;101347.83;103684;1251;95189;-68
2023/02/15 17:05:42;;;;;;;64.90;33.40;;;;;;;1.50;92.44;101348.05;103388;1253;137860;-70
2023/02/15 17:08:32;;;;;;;59.90;29.90;;;;;;;1.46;93.12;101354.65;103413;1251;107899;-70
2023/02/15 17:11:13;;;;;;;66.40;33.10;;;;;;;1.41;93.00;101356.23;102516;1252;1003085;-68
2023/02/15 17:14:02;;;;;;;63.00;30.80;;;;;;;1.36;92.81;101358.54;103507;1253;107695;-69
2023/02/15 17:16:35;;;;;;;59.30;30.60;;;;;;;1.32;92.79;101359.14;103234;1253;138145;-69
2023/02/15 17:19:14;;;;;;;61.00;31.00;;;;;;;1.28;93.14;101347.38;103423;1253;109995;-68
2023/02/15 17:21:46;;;;;;;66.80;33.50;;;;;;;1.23;93.16;101342.27;103432;1252;107503;-68
2023/02/15 17:24:21;;;;;;;66.70;32.10;;;;;;;1.18;93.42;101340.99;103564;1253;96472;-67
2023/02/15 17:27:06;;;;;;;60.40;32.10;;;;;;;1.16;93.29;101335.28;102745;1251;1003486;-68
2023/02/15 17:29:37;;;;;;;67.00;33.30;;;;;;;1.12;93.61;101332.47;102620;1251;1003330;-68
2023/02/15 17:32:15;;;;;;;69.70;36.50;;;;;;;1.10;93.63;101329.50;103550;1253;110533;-69
2023/02/15 17:35:15;;;;;;;63.90;32.80;;;;;;;1.08;93.66;101333.39;103571;1254;138345;-68
2023/02/15 17:37:48;;;;;;;67.70;35.40;;;;;;;1.06;93.61;101330.76;103529;1254;96312;-68
2023/02/15 17:40:21;;;;;;;68.40;34.90;;;;;;;1.06;93.72;101322.86;103364;1253;138244;-68
2023/02/15 17:42:48;;;;;;;65.60;32.90;;;;;;;1.06;93.94;101325.10;103464;1253;96530;-68
2023/02/15 17:45:16;;;;;;;69.00;34.60;;;;;;;1.06;93.76;101322.18;103572;1256;109348;-69
2023/02/15 17:47:43;;;;;;;69.10;36.80;;;;;;;1.06;94.13;101314.31;103391;1253;138171;-69
2023/02/15 17:50:17;;;;;;;70.50;35.00;;;;;;;1.08;94.14;101316.42;103591;1255;96999;-69
2023/02/15 17:52:56;;;;;;;75.20;37.00;;;;;;;1.09;94.11;101315.45;103471;1253;138063;-69
2023/02/15 17:55:37;;;;;;;73.50;36.70;;;;;;;1.11;94.27;101310.85;103451;1253;96484;-69
2023/02/15 17:58:18;;;;;;;71.30;35.50;;;;;;;1.12;94.09;101305.73;103409;1253;138047;-68
2023/02/15 18:12:19;;;;;;;69.00;34.70;;;;;;;1.07;94.21;101293.45;103724;1253;137728;-70
2023/02/15 18:15:11;;;;;;;72.30;36.00;;;;;;;1.04;94.16;101296.11;103267;1256;110215;-69
2023/02/15 18:17:42;;;;;;;74.30;35.40;;;;;;;1.02;93.99;101293.84;103228;1256;138102;-68
2023/02/15 18:20:23;;;;;;;63.10;32.40;;;;;;;1.00;94.17;101299.12;103367;1255;107058;-69
2023/02/15 18:22:51;;;;;;;68.10;34.20;;;;;;;1.00;93.97;101292.59;103651;1251;139196;-69
2023/02/15 18:25:24;;;;;;;69.10;34.40;;;;;;;1.00;94.05;101291.40;103306;1253;110502;-69
2023/02/15 18:28:01;;;;;;;64.00;36.10;;;;;;;1.00;94.18;101284.37;102391;1256;1003995;-69
2023/02/15 18:30:31;;;;;;;69.20;35.90;;;;;;;0.99;94.36;101283.51;103291;1253;97099;-69
2023/02/15 18:33:00;;;;;;;77.80;37.10;;;;;;;1.00;94.47;101279.23;103667;1252;107941;-69
2023/02/15 18:35:30;;;;;;;74.30;37.60;;;;;;;1.01;94.34;101277.72;103165;1253;138328;-68
2023/02/15 18:38:01;;;;;;;77.00;37.60;;;;;;;1.03;94.55;101275.88;102615;1256;1002838;-69
2023/02/15 18:40:31;;;;;;;70.10;35.50;;;;;;;1.02;94.56;101280.84;103201;1254;140921;-68
2023/02/15 18:42:58;;;;;;;79.90;39.20;;;;;;;1.02;94.43;101276.36;102525;1256;1003745;-68
2023/02/15 18:45:31;;;;;;;75.60;38.30;;;;;;;1.01;94.62;101272.92;102431;1253;1002491;-68
2023/02/15 18:48:10;;;;;;;79.30;39.60;;;;;;;1.01;94.37;101272.94;104702;1253;138609;-68
2023/02/15 18:50:39;;;;;;;78.70;38.10;;;;;;;1.03;94.36;101270.91;104860;1251;109049;-68
2023/02/15 18:53:15;;;;;;;71.80;38.40;;;;;;;1.04;94.49;101265.79;104697;1251;138259;-68
2023/02/15 18:55:44;;;;;;;80.50;38.40;;;;;;;1.05;94.50;101265.46;102817;1256;1003113;-68
2023/02/15 18:58:16;;;;;;;74.50;38.50;;;;;;;1.05;94.29;101267.52;103262;1253;138622;-69
2023/02/15 19:00:44;;;;;;;81.20;40.10;;;;;;;1.05;94.22;101259.84;102636;1256;1003674;-69
2023/02/15 19:03:23;;;;;;;79.30;38.90;;;;;;;1.08;94.26;101262.14;103313;1255;110172;-68
2023/02/15 19:05:50;;;;;;;79.60;39.90;;;;;;;1.10;94.18;101261.32;103176;1256;138083;-68
2023/02/15 19:08:38;;;;;;;76.40;39.80;;;;;;;1.12;94.20;101259.66;103266;1254;95844;-68
2023/02/15 19:11:15;;;;;;;72.60;39.00;;;;;;;1.14;94.13;101255.59;102487;1254;1002538;-69
2023/02/15 19:13:44;;;;;;;81.80;41.50;;;;;;;1.17;94.06;101254.63;103478;1254;96440;-69
2023/02/15 19:16:25;;;;;;;79.20;40.90;;;;;;;1.19;93.99;101250.39;102464;1253;1003444;-69
2023/02/15 19:18:53;;;;;;;74.20;39.80;;;;;;;1.21;93.96;101251.63;103332;1255;108410;-69
2023/02/15 19:21:23;;;;;;;75.60;40.00;;;;;;;1.24;93.82;101247.91;103268;1256;96454;-70
2023/02/15 19:23:58;;;;;;;85.30;39.70;;;;;;;1.27;93.82;101246.77;101703;1256;1003393;-70
2023/02/15 19:26:30;;;;;;;79.00;38.60;;;;;;;1.28;93.80;101246.14;103246;1256;96417;-68
2023/02/15 19:29:14;;;;;;;76.70;39.30;;;;;;;1.29;93.75;101248.05;103207;1256;137958;-69
2023/02/15 19:31:52;;;;;;;77.10;39.10;;;;;;;1.32;93.64;101245.02;103316;1253;106669;-69
2023/02/15 19:34:22;;;;;;;78.60;39.10;;;;;;;1.35;93.46;101245.92;103272;1256;139237;-70
2023/02/15 19:36:52;;;;;;;78.60;39.20;;;;;;;1.36;93.35;101238.59;102537;1256;1003549;-69
2023/02/15 19:39:37;;;;;;;83.30;40.20;;;;;;;1.37;93.44;101236.73;103237;1256;96323;-69
2023/02/15 19:42:19;;;;;;;79.80;40.00;;;;;;;1.38;93.30;101236.05;103362;1255;110601;-69
2023/02/15 19:44:50;;;;;;;77.50;40.30;;;;;;;1.40;93.34;101233.16;103319;1256;107942;-70
2023/02/15 19:47:28;;;;;;;82.40;39.10;;;;;;;1.41;93.25;101232.52;102549;1251;1002987;-69
2023/02/15 19:50:02;;;;;;;75.40;39.20;;;;;;;1.41;93.26;101227.36;103354;1251;106994;-69
2023/02/15 19:52:32;;;;;;;80.40;39.10;;;;;;;1.42;93.13;101228.58;103319;1253;138252;-69
2023/02/15 19:55:15;;;;;;;85.40;41.40;;;;;;;1.43;93.14;101231.69;103488;1255;109074;-69
2023/02/15 19:57:42;;;;;;;81.50;41.20;;;;;;;1.42;93.24;101231.16;103426;1255;107787;-70
2023/02/15 20:00:19;;;;;;;79.20;39.20;;;;;;;1.41;93.07;101226.00;103363;1254;137937;-74
2023/02/15 20:02:49;;;;;;;84.70;42.20;;;;;;;1.40;92.99;101218.43;102886;1256;1003091;-70
2023/02/15 20:05:16;;;;;;;80.90;41.10;;;;;;;1.40;93.10;101213.13;102608;1251;1003408;-71
2023/02/15 20:07:56;;;;;;;80.80;41.20;;;;;;;1.40;93.17;101211.58;103403;1253;110189;-69
2023/02/15 20:10:29;;;;;;;84.20;42.80;;;;;;;1.40;92.96;101211.24;103312;1255;138293;-70
2023/02/15 20:12:57;;;;;;;83.20;40.60;;;;;;;1.39;93.12;101211.05;103359;1253;96530;-70
2023/02/15 20:15:45;;;;;;;83.70;40.80;;;;;;;1.36;93.02;101203.45;103316;1256;107800;-73
2023/02/15 20:18:12;;;;;;;77.70;39.80;;;;;;;1.34;92.99;101200.33;103235;1256;138467;-72
2023/02/15 20:20:59;;;;;;;;;;;;;;;1.32;93.04;101197.05;103328;1254;111194;-69
2023/02/15 20:23:29;;;;;;;85.40;38.70;;;;;;;1.29;93.00;101196.81;103219;1256;124227;-69
2023/02/15 20:25:59;;;;;;;82.60;38.40;;;;;;;1.26;93.09;101195.56;103357;1253;96441;-70
2023/02/15 20:28:28;;;;;;;88.20;41.10;;;;;;;1.25;92.96;101191.90;103315;1253;138355;-68
2023/02/15 20:30:59;;;;;;;81.30;39.30;;;;;;;1.22;93.12;101191.51;103350;1256;96440;-71
2023/02/15 20:33:26;;;;;;;83.10;40.60;;;;;;;1.20;93.03;101191.65;103314;1256;109558;-69
2023/02/15 20:35:53;;;;;;;88.00;41.50;;;;;;;1.18;93.09;101191.95;103245;1253;138150;-69
2023/02/15 20:38:34;;;;;;;85.70;40.50;;;;;;;1.17;93.05;101188.85;103424;1256;96426;-69
2023/02/15 20:43:49;;;;;;;83.90;41.40;;;;;;;1.14;93.19;101180.06;103301;1256;96540;-68
2023/02/15 20:46:19;;;;;;;84.80;41.40;;;;;;;1.13;93.08;101177.80;103326;1251;138161;-67
2023/02/15 20:48:46;;;;;;;88.90;42.00;;;;;;;1.11;93.07;101175.72;103449;1253;108614;-68
2023/02/15 20:51:19;;;;;;;88.70;42.50;;;;;;;1.09;93.08;101173.11;103419;1256;96708;-68
2023/02/15 20:53:51;;;;;;;84.20;42.00;;;;;;;1.08;93.08;101172.91;103296;1257;137902;-68
2023/02/15 20:56:23;;;;;;;85.00;41.60;;;;;;;1.06;93.13;101169.23;103434;1256;96394;-67
2023/02/15 20:58:53;;;;;;;94.50;43.90;;;;;;;1.05;93.23;101165.45;103380;1253;137998;-68
2023/02/15 21:01:23;;;;;;;92.90;44.90;;;;;;;1.04;93.08;101168.86;102602;1254;1003002;-67
2023/02/15 21:03:51;;;;;;;88.10;43.50;;;;;;;1.03;93.09;101169.36;103423;1256;96335;-68
2023/02/15 21:06:18;;;;;;;91.30;45.10;;;;;;;1.02;93.12;101169.16;103362;1256;107989;-67
2023/02/15 21:08:54;;;;;;;97.20;45.40;;;;;;;1.00;93.22;101169.14;103439;1256;96408;-68
2023/02/15 21:11:23;;;;;;;99.20;47.40;;;;;;;0.99;93.21;101166.02;102536;1256;1003312;-67
2023/02/15 21:13:51;;;;;;;96.40;45.10;;;;;;;0.98;93.15;101165.66;103388;1254;108575;-69
2023/02/15 21:16:21;;;;;;;96.40;46.00;;;;;;;0.96;93.18;101161.86;103359;1256;138359;-68
2023/02/15 21:18:48;;;;;;;91.80;44.20;;;;;;;0.95;93.21;101157.89;103492;1254;108179;-68
2023/02/15 21:21:22;;;;;;;101.00;45.30;;;;;;;0.92;93.38;101155.45;103319;1254;96329;-67
2023/02/15 21:23:49;;;;;;;92.70;44.70;;;;;;;0.91;93.29;101149.27;103517;1256;138703;-68
2023/02/15 21:26:19;;;;;;;93.30;45.50;;;;;;;0.90;93.39;101149.06;103362;1254;107340;-67
2023/02/15 21:28:47;;;;;;;96.30;46.00;;;;;;;0.89;93.42;101149.20;103349;1256;138138;-66
2023/02/15 21:31:19;;;;;;;97.40;46.00;;;;;;;0.88;93.31;101147.46;103290;1256;108370;-67
2023/02/15 21:33:47;;;;;;;96.40;46.80;;;;;;;0.88;93.37;101146.61;103361;1256;96439;-67
2023/02/15 21:36:17;;;;;;;96.80;45.90;;;;;;;0.88;93.43;101148.49;103401;1257;137913;-70
2023/02/15 21:38:46;;;;;;;97.90;47.30;;;;;;;0.88;93.37;101140.96;103535;1251;108102;-67
2023/02/15 21:49:49;;;;;;;96.00;45.80;;;;;;;0.83;93.62;101121.16;103437;1254;110814;-67
2023/02/15 21:52:21;;;;;;;102.90;47.70;;;;;;;0.81;93.56;101118.05;102573;1251;1003594;-67
2023/02/15 21:54:52;;;;;;;98.40;46.10;;;;;;;0.79;93.67;101118.52;102841;1256;1002890;-67
2023/02/15 21:57:19;;;;;;;99.40;46.80;;;;;;;0.78;93.72;101119.17;102745;1256;1003233;-68
2023/02/15 21:59:58;;;;;;;106.10;47.80;;;;;;;0.76;93.77;101117.27;103337;1255;138353;-67
2023/02/15 22:02:31;;;;;;;94.90;46.50;;;;;;;0.75;93.80;101115.52;103579;1254;110746;-68
2023/02/15 22:05:15;;;;;;;97.20;46.20;;;;;;;0.74;93.86;101111.91;103374;1256;138165;-67
2023/02/15 22:07:43;;;;;;;96.00;45.60;;;;;;;0.73;93.85;101108.48;103509;1256;96396;-69
2023/02/15 22:10:11;;;;;;;94.90;44.90;;;;;;;0.72;93.94;101105.16;103424;1256;138250;-67
2023/02/15 22:12:43;;;;;;;92.80;43.60;;;;;;;0.72;94.05;101095.40;103561;1264;96406;-67
2023/02/15 22:15:24;;;;;;;93.70;45.80;;;;;;;0.70;93.98;101088.86;103425;1256;109586;-67
2023/02/15 22:17:51;;;;;;;90.10;44.10;;;;;;;0.69;94.09;101082.85;103272;1255;138221;-67
2023/02/15 22:20:21;;;;;;;88.20;45.50;;;;;;;0.67;94.14;101075.80;102839;1251;1003501;-67
2023/02/15 22:22:51;;;;;;;88.90;44.50;;;;;;;0.65;94.19;101071.81;102859;1251;1002979;-69
2023/02/15 22:25:23;;;;;;;93.10;44.80;;;;;;;0.63;94.12;101070.23;103556;1251;96454;-68
2023/02/15 22:27:53;;;;;;;95.10;45.50;;;;;;;0.60;94.18;101067.45;103761;1251;110094;-68
2023/02/15 22:30:26;;;;;;;94.20;46.40;;;;;;;0.58;94.35;101063.31;103904;1251;106587;-67
2023/02/15 22:33:16;;;;;;;95.10;45.80;;;;;;;0.57;94.23;101062.08;103585;1252;96328;-67
2023/02/15 22:35:43;;;;;;;95.80;45.20;;;;;;;0.54;94.36;101056.73;103482;1251;138039;-68
2023/02/15 22:38:13;;;;;;;92.00;45.00;;;;;;;0.53;94.37;101057.02;103522;1255;96444;-67
2023/02/15 22:40:49;;;;;;;95.00;46.40;;;;;;;0.51;94.51;101055.26;103532;1257;138067;-67
2023/02/15 22:43:30;;;;;;;89.30;44.10;;;;;;;0.50;94.66;101057.81;103439;1251;108346;-68
2023/02/15 22:46:02;;;;;;;93.50;46.80;;;;;;;0.49;94.54;101050.95;103499;1252;138295;-68
2023/02/15 22:48:51;;;;;;;95.30;45.80;;;;;;;0.48;94.45;101046.64;103833;1251;107394;-67
2023/02/15 22:51:20;;;;;;;93.90;46.20;;;;;;;0.46;94.59;101047.80;103585;1256;96453;-66
2023/02/15 22:53:48;;;;;;;94.40;45.60;;;;;;;0.46;94.56;101045.57;103846;1255;138168;-67
2023/02/15 22:56:21;;;;;;;92.40;45.00;;;;;;;0.44;94.57;101052.55;103559;1257;106825;-68
2023/02/15 22:59:04;;;;;;;99.40;47.90;;;;;;;0.43;94.70;101051.50;103413;1255;138211;-67
2023/02/15 23:01:34;;;;;;;95.20;45.50;;;;;;;0.44;94.80;101050.33;102748;1251;1003552;-67
2023/02/15 23:04:05;;;;;;;98.30;48.20;;;;;;;0.43;94.59;101046.21;103665;1251;138409;-71
2023/02/15 23:06:40;;;;;;;104.00;48.90;;;;;;;0.42;94.73;101039.86;103455;1256;110559;-71
2023/02/15 23:09:10;;;;;;;107.30;47.80;;;;;;;0.41;94.72;101043.25;103444;1253;107722;-70
2023/02/15 23:11:37;;;;;;;104.00;50.30;;;;;;;0.40;94.59;101045.13;103305;1252;138319;-70
2023/02/15 23:14:05;;;;;;;101.10;48.70;;;;;;;0.40;94.60;101042.02;103463;1254;106850;-69
2023/02/15 23:16:33;;;;;;;105.30;50.80;;;;;;;0.38;94.45;101036.02;103406;1257;138516;-70
2023/02/15 23:19:06;;;;;;;113.50;50.20;;;;;;;0.36;94.47;101030.98;103505;1251;108258;-71
2023/02/15 23:21:35;;;;;;;101.60;50.20;;;;;;;0.34;94.41;101030.07;103388;1254;108571;-70
2023/02/15 23:24:26;;;;;;;108.40;51.10;;;;;;;0.30;94.43;101027.26;103433;1251;96547;-70
2023/02/15 23:26:54;;;;;;;102.90;51.50;;;;;;;0.26;94.58;101029.59;103479;1251;107707;-69
2023/02/15 23:29:41;;;;;;;113.10;53.50;;;;;;;0.22;94.39;101026.60;103530;1251;138387;-70
2023/02/15 23:32:13;;;;;;;115.00;52.30;;;;;;;0.20;94.52;101021.06;103488;1254;109866;-70
2023/02/15 23:34:41;;;;;;;104.70;51.00;;;;;;;0.17;94.43;101025.60;103312;1255;138463;-70
2023/02/15 23:37:12;;;;;;;109.50;53.90;;;;;;;0.15;94.27;101023.16;102664;1251;1003160;-70
2023/02/15 23:42:30;;;;;;;111.30;54.40;;;;;;;0.09;94.41;101019.44;103384;1251;98024;-70
2023/02/15 23:44:58;;;;;;;112.70;54.90;;;;;;;0.05;94.47;101008.58;103561;1251;109406;-70
2023/02/15 23:50:19;;;;;;;124.10;58.40;;;;;;;-0.05;94.60;101001.17;103284;1254;97765;-71
2023/02/15 23:52:49;;;;;;;89.10;43.70;;;;;;;-0.09;94.63;100993.90;103029;1255;138324;-70
2023/02/15 23:55:19;;;;;;;120.70;57.70;;;;;;;-0.15;94.80;100986.27;103212;1260;96418;-71
2023/02/15 23:57:49;;;;;;;114.40;56.80;;;;;;;-0.20;94.93;100984.41;103121;1260;108463;-70
